BAW46M EGLL-LPPR
Flight info
| Callsign | BAW46M |
|---|---|
| Flight time | 1h 38m |
| Altitude | 37000 |
| Route | GASGU N866 SAM M195 LORKU DCT EBOMO DCT KORUL DCT ELTEP/N0358F230 T328 ASPOR |
| Aircraft | A320/M-SDE3FGHIRWY/LB1 |
Departure
| Time | 2026-05-04 16:18 |
|---|---|
| Airport | London Heathrow Airport (EGLL) |
Arrival
| Time | 2026-05-04 17:56 |
|---|---|
| Airport | Francisco de Sá Carneiro Airport (LPPR) |
| Time | Latitude | Longitude | Altitude | Speed | Heading |
|---|---|---|---|---|---|
| 2026-05-04 15:26 | 51.47232 | -0.48585 | 91 ft | 0 kts | 270° |
| 2026-05-04 15:26 | 51.47233 | -0.48585 | 91 ft | 0 kts | 270° |
| 2026-05-04 16:06 | 51.47233 | -0.48584 | 86 ft | 1 kts | 270° |
| 2026-05-04 16:06 | 51.47233 | -0.48515 | 89 ft | 3 kts | 276° |
| 2026-05-04 16:07 | 51.47227 | -0.48484 | 86 ft | 3 kts | 319° |
| 2026-05-04 16:07 | 51.47194 | -0.48473 | 88 ft | 0 kts | 360° |
| 2026-05-04 16:09 | 51.47243 | -0.48473 | 86 ft | 13 kts | 360° |
| 2026-05-04 16:10 | 51.47416 | -0.48474 | 86 ft | 17 kts | 359° |
| 2026-05-04 16:11 | 51.47580 | -0.48087 | 88 ft | 21 kts | 90° |
| 2026-05-04 16:11 | 51.47580 | -0.47821 | 90 ft | 25 kts | 89° |
| 2026-05-04 16:12 | 51.47583 | -0.46935 | 90 ft | 26 kts | 89° |
| 2026-05-04 16:12 | 51.47595 | -0.45998 | 87 ft | 28 kts | 90° |
| 2026-05-04 16:13 | 51.47598 | -0.45345 | 86 ft | 31 kts | 89° |
| 2026-05-04 16:13 | 51.47600 | -0.44629 | 86 ft | 33 kts | 90° |
| 2026-05-04 16:14 | 51.47593 | -0.43997 | 86 ft | 20 kts | 90° |
| 2026-05-04 16:14 | 51.47595 | -0.43583 | 90 ft | 11 kts | 83° |
| 2026-05-04 16:15 | 51.47610 | -0.43546 | 87 ft | 0 kts | 39° |
| 2026-05-04 16:16 | 51.47674 | -0.43436 | 88 ft | 18 kts | 27° |
| 2026-05-04 16:16 | 51.47766 | -0.44382 | 86 ft | 94 kts | 269° |
| 2026-05-04 16:17 | 51.47744 | -0.47497 | 385 ft | 161 kts | 272° |
| 2026-05-04 16:18 | 51.47706 | -0.53545 | 1668 ft | 209 kts | 262° |
| 2026-05-04 16:18 | 51.47397 | -0.55962 | 2011 ft | 234 kts | 257° |
| 2026-05-04 16:19 | 51.46006 | -0.64328 | 4330 ft | 268 kts | 256° |
| 2026-05-04 16:19 | 51.45637 | -0.70290 | 6249 ft | 271 kts | 269° |
| 2026-05-04 16:20 | 51.45465 | -0.79480 | 8848 ft | 279 kts | 266° |
| 2026-05-04 16:20 | 51.44312 | -0.85312 | 10416 ft | 282 kts | 225° |
| 2026-05-04 16:21 | 51.39036 | -0.91060 | 11689 ft | 325 kts | 212° |
| 2026-05-04 16:22 | 51.35100 | -0.94840 | 13103 ft | 333 kts | 210° |
| 2026-05-04 16:22 | 51.28927 | -1.00256 | 15019 ft | 344 kts | 209° |
| 2026-05-04 16:23 | 51.22784 | -1.06425 | 16904 ft | 352 kts | 213° |
| 2026-05-04 16:24 | 51.14469 | -1.15142 | 19313 ft | 363 kts | 212° |
| 2026-05-04 16:25 | 51.10203 | -1.19535 | 20516 ft | 367 kts | 212° |
| 2026-05-04 16:26 | 51.01499 | -1.28427 | 22809 ft | 376 kts | 213° |
| 2026-05-04 16:26 | 50.94819 | -1.35219 | 24343 ft | 382 kts | 213° |
| 2026-05-04 16:27 | 50.90351 | -1.39850 | 25274 ft | 385 kts | 213° |
| 2026-05-04 16:28 | 50.83644 | -1.46867 | 26658 ft | 388 kts | 212° |
| 2026-05-04 16:28 | 50.76832 | -1.53937 | 27933 ft | 392 kts | 212° |
| 2026-05-04 16:29 | 50.61436 | -1.69809 | 30505 ft | 403 kts | 210° |
| 2026-05-04 16:30 | 50.47075 | -1.84482 | 32406 ft | 414 kts | 211° |
| 2026-05-04 16:31 | 50.37322 | -1.94412 | 33801 ft | 420 kts | 211° |
| 2026-05-04 16:31 | 50.22501 | -2.09356 | 35556 ft | 424 kts | 211° |
| 2026-05-04 16:32 | 50.07454 | -2.23947 | 36999 ft | 426 kts | 211° |
| 2026-05-04 16:33 | 49.87288 | -2.43394 | 36998 ft | 426 kts | 211° |
| 2026-05-04 16:34 | 49.72228 | -2.57826 | 36997 ft | 426 kts | 211° |
| 2026-05-04 16:35 | 49.41883 | -2.86583 | 37005 ft | 429 kts | 210° |
| 2026-05-04 16:36 | 49.26598 | -3.00882 | 37008 ft | 429 kts | 210° |
| 2026-05-04 16:37 | 49.11290 | -3.15135 | 36998 ft | 430 kts | 210° |
| 2026-05-04 16:38 | 48.90780 | -3.34037 | 36998 ft | 431 kts | 210° |
| 2026-05-04 16:39 | 48.65090 | -3.57446 | 37012 ft | 432 kts | 210° |
| 2026-05-04 16:40 | 48.44432 | -3.76107 | 36997 ft | 433 kts | 210° |
| 2026-05-04 16:41 | 48.18502 | -3.99229 | 37006 ft | 433 kts | 210° |
| 2026-05-04 16:43 | 47.92545 | -4.22125 | 37009 ft | 433 kts | 210° |
| 2026-05-04 16:43 | 47.76998 | -4.35877 | 37002 ft | 434 kts | 211° |
| 2026-05-04 16:45 | 47.46285 | -4.64374 | 37003 ft | 434 kts | 211° |
| 2026-05-04 16:46 | 47.26014 | -4.82876 | 37000 ft | 434 kts | 211° |
| 2026-05-04 16:47 | 47.15726 | -4.92194 | 37002 ft | 434 kts | 211° |
| 2026-05-04 16:48 | 47.05419 | -5.01485 | 37004 ft | 435 kts | 211° |
| 2026-05-04 16:49 | 46.95129 | -5.10735 | 37006 ft | 435 kts | 211° |
| 2026-05-04 16:50 | 46.84807 | -5.19966 | 37005 ft | 435 kts | 211° |
| 2026-05-04 16:51 | 46.77069 | -5.26861 | 37011 ft | 434 kts | 211° |
| 2026-05-04 16:52 | 46.66724 | -5.36026 | 37009 ft | 435 kts | 211° |
| 2026-05-04 16:53 | 46.59049 | -5.42813 | 37049 ft | 435 kts | 211° |
| 2026-05-04 16:54 | 46.48687 | -5.51933 | 36986 ft | 435 kts | 211° |
| 2026-05-04 16:55 | 46.33154 | -5.65514 | 36993 ft | 435 kts | 211° |
| 2026-05-04 16:56 | 46.20183 | -5.76800 | 36992 ft | 437 kts | 211° |
| 2026-05-04 16:57 | 46.13240 | -5.82814 | 36996 ft | 437 kts | 211° |
| 2026-05-04 16:58 | 46.02809 | -5.91822 | 36999 ft | 437 kts | 211° |
| 2026-05-04 17:00 | 45.87129 | -6.05266 | 36999 ft | 438 kts | 211° |
| 2026-05-04 17:01 | 45.74031 | -6.16430 | 37008 ft | 438 kts | 211° |
| 2026-05-04 17:02 | 45.63560 | -6.25328 | 37008 ft | 438 kts | 211° |
| 2026-05-04 17:03 | 45.55692 | -6.31970 | 37001 ft | 438 kts | 211° |
| 2026-05-04 17:03 | 45.47810 | -6.38607 | 37003 ft | 439 kts | 211° |
| 2026-05-04 17:04 | 45.37319 | -6.47419 | 37006 ft | 439 kts | 211° |
| 2026-05-04 17:05 | 45.26794 | -6.56206 | 37010 ft | 438 kts | 211° |
| 2026-05-04 17:06 | 45.18897 | -6.62779 | 37004 ft | 439 kts | 211° |
| 2026-05-04 17:07 | 45.11883 | -6.68609 | 37005 ft | 439 kts | 211° |
| 2026-05-04 17:07 | 45.05726 | -6.73705 | 37008 ft | 439 kts | 211° |
| 2026-05-04 17:08 | 44.97813 | -6.80224 | 37006 ft | 438 kts | 211° |
| 2026-05-04 17:09 | 44.92600 | -6.84517 | 37008 ft | 438 kts | 211° |
| 2026-05-04 17:09 | 44.87317 | -6.88863 | 37004 ft | 438 kts | 211° |
| 2026-05-04 17:10 | 44.81860 | -6.92648 | 36997 ft | 440 kts | 198° |
| 2026-05-04 17:10 | 44.73028 | -6.96211 | 36994 ft | 440 kts | 197° |
| 2026-05-04 17:11 | 44.67141 | -6.98579 | 36998 ft | 441 kts | 197° |
| 2026-05-04 17:12 | 44.58287 | -7.02145 | 37013 ft | 441 kts | 197° |
| 2026-05-04 17:13 | 44.43517 | -7.08043 | 37018 ft | 442 kts | 197° |
| 2026-05-04 17:14 | 44.31683 | -7.12762 | 37022 ft | 441 kts | 198° |
| 2026-05-04 17:15 | 44.22870 | -7.16268 | 37029 ft | 441 kts | 197° |
| 2026-05-04 17:16 | 44.11060 | -7.20928 | 37033 ft | 441 kts | 198° |
| 2026-05-04 17:17 | 43.99240 | -7.25582 | 37021 ft | 442 kts | 198° |
| 2026-05-04 17:18 | 43.87409 | -7.30219 | 37037 ft | 442 kts | 198° |
| 2026-05-04 17:19 | 43.75608 | -7.34822 | 37036 ft | 441 kts | 198° |
| 2026-05-04 17:20 | 43.63789 | -7.39412 | 37054 ft | 441 kts | 198° |
| 2026-05-04 17:20 | 43.54936 | -7.42846 | 37047 ft | 440 kts | 198° |
| 2026-05-04 17:21 | 43.43138 | -7.47400 | 37068 ft | 440 kts | 198° |
| 2026-05-04 17:22 | 43.37238 | -7.49672 | 37063 ft | 440 kts | 198° |
| 2026-05-04 17:23 | 43.25482 | -7.54188 | 37078 ft | 440 kts | 198° |
| 2026-05-04 17:24 | 43.16638 | -7.57571 | 37069 ft | 440 kts | 199° |
| 2026-05-04 17:25 | 43.04857 | -7.62065 | 37079 ft | 440 kts | 199° |
| 2026-05-04 17:26 | 42.93058 | -7.66536 | 37080 ft | 440 kts | 199° |
| 2026-05-04 17:27 | 42.78311 | -7.72108 | 37090 ft | 440 kts | 199° |
| 2026-05-04 17:28 | 42.66509 | -7.76546 | 36620 ft | 439 kts | 199° |
| 2026-05-04 17:29 | 42.57755 | -7.79818 | 35255 ft | 431 kts | 199° |
| 2026-05-04 17:29 | 42.49121 | -7.83061 | 33723 ft | 427 kts | 200° |
| 2026-05-04 17:30 | 42.40671 | -7.86230 | 32279 ft | 416 kts | 200° |
| 2026-05-04 17:31 | 42.35101 | -7.88304 | 31337 ft | 409 kts | 200° |
| 2026-05-04 17:31 | 42.27026 | -7.91306 | 29979 ft | 397 kts | 201° |
| 2026-05-04 17:32 | 42.21773 | -7.93254 | 29134 ft | 386 kts | 201° |
| 2026-05-04 17:33 | 42.14128 | -7.96094 | 27938 ft | 374 kts | 200° |
| 2026-05-04 17:33 | 42.11629 | -7.97021 | 27540 ft | 370 kts | 201° |
| 2026-05-04 17:34 | 42.05711 | -7.99212 | 26600 ft | 366 kts | 201° |
| 2026-05-04 17:35 | 42.00699 | -8.01067 | 25780 ft | 356 kts | 201° |
| 2026-05-04 17:35 | 41.96013 | -8.02786 | 24979 ft | 346 kts | 201° |
| 2026-05-04 17:35 | 41.93741 | -8.03613 | 24570 ft | 329 kts | 201° |
| 2026-05-04 17:36 | 41.91587 | -8.04395 | 24187 ft | 314 kts | 201° |
| 2026-05-04 17:36 | 41.89509 | -8.05152 | 23836 ft | 310 kts | 203° |
| 2026-05-04 17:36 | 41.87424 | -8.05924 | 23433 ft | 311 kts | 203° |
| 2026-05-04 17:36 | 41.85342 | -8.06696 | 23042 ft | 310 kts | 203° |
| 2026-05-04 17:37 | 41.83266 | -8.07463 | 22662 ft | 308 kts | 202° |
| 2026-05-04 17:37 | 41.81257 | -8.08377 | 22301 ft | 301 kts | 211° |
| 2026-05-04 17:37 | 41.79421 | -8.09674 | 21939 ft | 297 kts | 216° |
| 2026-05-04 17:37 | 41.77626 | -8.11027 | 21587 ft | 296 kts | 215° |
| 2026-05-04 17:38 | 41.75832 | -8.12369 | 21235 ft | 295 kts | 215° |
| 2026-05-04 17:38 | 41.74047 | -8.13702 | 20896 ft | 294 kts | 215° |
| 2026-05-04 17:38 | 41.72266 | -8.15032 | 20534 ft | 293 kts | 215° |
| 2026-05-04 17:38 | 41.70475 | -8.16324 | 20169 ft | 293 kts | 210° |
| 2026-05-04 17:39 | 41.66609 | -8.18176 | 19436 ft | 294 kts | 205° |
| 2026-05-04 17:39 | 41.64679 | -8.19056 | 19077 ft | 293 kts | 205° |
| 2026-05-04 17:39 | 41.62753 | -8.19936 | 18716 ft | 292 kts | 205° |
| 2026-05-04 17:40 | 41.60837 | -8.20811 | 18353 ft | 290 kts | 204° |
| 2026-05-04 17:40 | 41.58929 | -8.21683 | 17961 ft | 289 kts | 204° |
| 2026-05-04 17:40 | 41.57053 | -8.22543 | 17601 ft | 288 kts | 204° |
| 2026-05-04 17:40 | 41.55162 | -8.23409 | 17246 ft | 286 kts | 204° |
| 2026-05-04 17:41 | 41.53256 | -8.24281 | 16888 ft | 285 kts | 204° |
| 2026-05-04 17:41 | 41.51406 | -8.25123 | 16541 ft | 284 kts | 204° |
| 2026-05-04 17:41 | 41.49539 | -8.25972 | 16191 ft | 283 kts | 204° |
| 2026-05-04 17:41 | 41.47678 | -8.26821 | 15829 ft | 281 kts | 204° |
| 2026-05-04 17:42 | 41.45834 | -8.27662 | 15510 ft | 280 kts | 204° |
| 2026-05-04 17:42 | 41.43993 | -8.28498 | 15159 ft | 278 kts | 204° |
| 2026-05-04 17:42 | 41.42163 | -8.29329 | 14839 ft | 277 kts | 204° |
| 2026-05-04 17:42 | 41.40346 | -8.30155 | 14507 ft | 276 kts | 204° |
| 2026-05-04 17:43 | 41.38531 | -8.30980 | 14176 ft | 274 kts | 204° |
| 2026-05-04 17:43 | 41.36731 | -8.31795 | 13845 ft | 272 kts | 204° |
| 2026-05-04 17:43 | 41.34938 | -8.32606 | 13486 ft | 272 kts | 204° |
| 2026-05-04 17:43 | 41.33153 | -8.33416 | 13164 ft | 275 kts | 203° |
| 2026-05-04 17:44 | 41.31284 | -8.34272 | 13058 ft | 288 kts | 203° |
| 2026-05-04 17:44 | 41.30017 | -8.34851 | 13079 ft | 292 kts | 203° |
| 2026-05-04 17:44 | 41.28101 | -8.35720 | 12621 ft | 290 kts | 203° |
| 2026-05-04 17:44 | 41.26162 | -8.36598 | 11547 ft | 296 kts | 202° |
| 2026-05-04 17:45 | 41.24281 | -8.37440 | 11359 ft | 272 kts | 202° |
| 2026-05-04 17:45 | 41.22554 | -8.38208 | 11167 ft | 257 kts | 203° |
| 2026-05-04 17:45 | 41.20829 | -8.38986 | 10869 ft | 263 kts | 203° |
| 2026-05-04 17:45 | 41.19092 | -8.39770 | 10560 ft | 263 kts | 202° |
| 2026-05-04 17:46 | 41.17363 | -8.40551 | 10244 ft | 262 kts | 202° |
| 2026-05-04 17:46 | 41.15624 | -8.41339 | 9483 ft | 266 kts | 203° |
| 2026-05-04 17:46 | 41.13891 | -8.42119 | 9146 ft | 263 kts | 202° |
| 2026-05-04 17:46 | 41.12137 | -8.42910 | 9003 ft | 268 kts | 202° |
| 2026-05-04 17:47 | 41.10367 | -8.43709 | 8740 ft | 269 kts | 202° |
| 2026-05-04 17:47 | 41.08625 | -8.44494 | 8408 ft | 267 kts | 202° |
| 2026-05-04 17:47 | 41.06845 | -8.45295 | 8175 ft | 267 kts | 202° |
| 2026-05-04 17:47 | 41.05109 | -8.46072 | 7882 ft | 266 kts | 202° |
| 2026-05-04 17:48 | 41.03367 | -8.46849 | 7490 ft | 256 kts | 204° |
| 2026-05-04 17:48 | 41.01841 | -8.47837 | 7121 ft | 241 kts | 220° |
| 2026-05-04 17:48 | 41.00667 | -8.49371 | 6749 ft | 231 kts | 239° |
| 2026-05-04 17:48 | 40.99943 | -8.51218 | 6389 ft | 224 kts | 254° |
| 2026-05-04 17:49 | 40.99602 | -8.53221 | 6049 ft | 222 kts | 261° |
| 2026-05-04 17:49 | 40.99310 | -8.55194 | 5734 ft | 221 kts | 262° |
| 2026-05-04 17:49 | 40.99014 | -8.57172 | 5428 ft | 218 kts | 262° |
| 2026-05-04 17:49 | 40.98852 | -8.59167 | 5112 ft | 217 kts | 281° |
| 2026-05-04 17:50 | 40.99498 | -8.60936 | 4807 ft | 217 kts | 315° |
| 2026-05-04 17:50 | 41.00813 | -8.61843 | 4498 ft | 215 kts | 345° |
| 2026-05-04 17:50 | 41.02252 | -8.62163 | 4189 ft | 203 kts | 347° |
| 2026-05-04 17:50 | 41.03604 | -8.62512 | 4039 ft | 193 kts | 346° |
| 2026-05-04 17:51 | 41.04915 | -8.62869 | 3947 ft | 193 kts | 345° |
| 2026-05-04 17:51 | 41.06195 | -8.63221 | 3676 ft | 182 kts | 345° |
| 2026-05-04 17:51 | 41.07400 | -8.63545 | 3419 ft | 172 kts | 345° |
| 2026-05-04 17:51 | 41.08547 | -8.63850 | 3162 ft | 164 kts | 345° |
| 2026-05-04 17:52 | 41.09642 | -8.64140 | 2952 ft | 158 kts | 345° |
| 2026-05-04 17:52 | 41.10717 | -8.64421 | 2743 ft | 157 kts | 345° |
| 2026-05-04 17:52 | 41.11742 | -8.64686 | 2558 ft | 141 kts | 344° |
| 2026-05-04 17:52 | 41.12678 | -8.64928 | 2359 ft | 133 kts | 343° |
| 2026-05-04 17:53 | 41.13575 | -8.65171 | 2181 ft | 130 kts | 342° |
| 2026-05-04 17:53 | 41.14456 | -8.65410 | 2008 ft | 130 kts | 344° |
| 2026-05-04 17:53 | 41.15339 | -8.65645 | 1819 ft | 130 kts | 343° |
| 2026-05-04 17:53 | 41.16225 | -8.65888 | 1644 ft | 130 kts | 344° |
| 2026-05-04 17:54 | 41.17111 | -8.66123 | 1486 ft | 129 kts | 345° |
| 2026-05-04 17:54 | 41.17995 | -8.66358 | 1313 ft | 130 kts | 348° |
| 2026-05-04 17:54 | 41.18875 | -8.66584 | 1134 ft | 130 kts | 344° |
| 2026-05-04 17:54 | 41.19753 | -8.66811 | 982 ft | 130 kts | 346° |
| 2026-05-04 17:55 | 41.20638 | -8.67041 | 845 ft | 129 kts | 347° |
| 2026-05-04 17:55 | 41.21519 | -8.67260 | 623 ft | 130 kts | 346° |
| 2026-05-04 17:55 | 41.22396 | -8.67492 | 457 ft | 128 kts | 346° |
| 2026-05-04 17:55 | 41.23273 | -8.67720 | 290 ft | 128 kts | 344° |
| 2026-05-04 17:56 | 41.24111 | -8.67923 | 215 ft | 112 kts | 347° |
| 2026-05-04 17:56 | 41.24711 | -8.68101 | 205 ft | 66 kts | 348° |
| 2026-05-04 17:56 | 41.25051 | -8.68180 | 193 ft | 33 kts | 1° |
| 2026-05-04 17:56 | 41.25228 | -8.68128 | 183 ft | 21 kts | 16° |
| 2026-05-04 17:57 | 41.25272 | -8.68022 | 183 ft | 9 kts | 155° |
| 2026-05-04 17:57 | 41.25221 | -8.68005 | 188 ft | 14 kts | 167° |
| 2026-05-04 17:57 | 41.25120 | -8.67975 | 194 ft | 16 kts | 172° |
| 2026-05-04 17:57 | 41.24995 | -8.67948 | 194 ft | 19 kts | 166° |
| 2026-05-04 17:58 | 41.24872 | -8.67904 | 202 ft | 18 kts | 157° |
| 2026-05-04 17:58 | 41.24776 | -8.67842 | 205 ft | 16 kts | 156° |
| 2026-05-04 17:58 | 41.24661 | -8.67802 | 214 ft | 17 kts | 167° |
| 2026-05-04 17:58 | 41.24535 | -8.67768 | 218 ft | 21 kts | 168° |
| 2026-05-04 17:59 | 41.24393 | -8.67728 | 225 ft | 20 kts | 168° |
| 2026-05-04 17:59 | 41.24274 | -8.67653 | 232 ft | 15 kts | 130° |
| 2026-05-04 17:59 | 41.24057 | -8.67539 | 237 ft | 20 kts | 169° |
| 2026-05-04 18:00 | 41.23910 | -8.67499 | 237 ft | 23 kts | 169° |
| 2026-05-04 18:00 | 41.23767 | -8.67454 | 237 ft | 19 kts | 145° |
| 2026-05-04 18:00 | 41.23683 | -8.67356 | 242 ft | 14 kts | 155° |
| 2026-05-04 18:00 | 41.23589 | -8.67347 | 241 ft | 15 kts | 199° |
| 2026-05-04 18:01 | 41.23532 | -8.67356 | 240 ft | 7 kts | 131° |
| 2026-05-04 18:01 | 41.23515 | -8.67310 | 242 ft | 4 kts | 114° |
| 2026-05-04 18:01 | 41.23507 | -8.67286 | 242 ft | 0 kts | 114° |
| 2026-05-04 18:02 | 41.23504 | -8.67276 | 242 ft | 0 kts | 114° |